• Join FlightAware (Why Join?)
  • Login
  • US Flag 
04:59PM EDT


 

Airport Tracker/Info


-or-


 

Live Flight TrackerFlight Track Log ✈ VH-VHO ✈ 18-Jul-2013 ✈ YBTH / BHS - YSCN / CDU

Flight Track Log - Related Links

Times and Time Zones

All times are in EDT time to prevent confusion due to time zone crossing. See the VH-VHO flight status page for this flight to view local times or setup timezone preferences in your user account.

Time Position Orientation Groundspeed Altitude Reporting Facility
EDT Latitude Longitude Course Direction KTS MPH feet Rate Location/Type
08:41PM -33.4185 149.6243 147° Southeast 140 161 5,300  Level Aus ATC (RADAR)
08:42PM -33.4444 149.6447 147° Southeast 152 175 6,100 1,080 Climbing Aus ATC (RADAR)
08:42PM -33.4601 149.6653 132° Southeast 145 167 6,800 600 Climbing Aus ATC (RADAR)
08:43PM -33.4847 149.6972 133° Southeast 162 186 7,000  Climbing Aus ATC (RADAR)
08:44PM -33.5258 149.7266 149° Southeast 191 220 6,900  Descending Aus ATC (RADAR)
08:45PM -33.5762 149.7537 156° South 197 227 7,100 60 Climbing Aus ATC (RADAR)
08:46PM -33.6286 149.7759 161° South 200 230 7,100  Level Aus ATC (RADAR)
08:47PM -33.6766 149.8082 151° Southeast 200 230 7,100 -180 Level Aus ATC (RADAR)
08:48PM -33.7057 149.8241 156° South 197 227 6,900  Descending Aus ATC (RADAR)
08:48PM -33.7511 149.8507 154° Southeast 197 227 7,100 60 Climbing Aus ATC (RADAR)
08:49PM -33.7804 149.8677 154° Southeast 199 229 7,000 -120 Descending Aus ATC (RADAR)
08:50PM -33.8463 149.9065 154° Southeast 198 228 6,900  Descending Aus ATC (RADAR)
08:52PM -33.8989 149.9408 152° Southeast 200 230 7,000 180 Climbing Aus ATC (RADAR)
08:52PM -33.9034 149.9812 98° East 184 212 7,300 60 Climbing Aus ATC (RADAR)
08:53PM -33.9070 150.0164 97° East 181 208 7,100 -180 Descending Aus ATC (RADAR)
08:54PM -33.9102 150.0647 95° East 186 214 7,100 -180 Level Aus ATC (RADAR)
08:54PM -33.9113 150.0949 92° East 178 205 6,900 -480 Descending Aus ATC (RADAR)
08:55PM -33.9126 150.1494 92° East 173 199 6,500 -480 Descending Aus ATC (RADAR)
08:56PM -33.9120 150.1944 89° East 175 201 6,100 -480 Descending Aus ATC (RADAR)
08:56PM -33.9147 150.2303 95° East 179 206 5,900 -180 Descending Aus ATC (RADAR)
08:57PM -33.9206 150.2740 99° East 169 194 5,900  Level Aus ATC (RADAR)
08:58PM -33.9194 150.3126 88° East 169 194 5,900 -180 Level Aus ATC (RADAR)
08:59PM -33.9177 150.3623 88° East 160 184 5,700 -60 Descending Aus ATC (RADAR)
08:59PM -33.9224 150.4084 97° East 161 185 5,800 -120 Climbing Aus ATC (RADAR)
09:00PM -33.9332 150.4480 108° East 164 189 5,500 -420 Descending Aus ATC (RADAR)
09:01PM -33.9549 150.5003 117° Southeast 173 199 5,000 -660 Descending Aus ATC (RADAR)
09:02PM -33.9740 150.5408 120° Southeast 183 211 4,400 -720 Descending Aus ATC (RADAR)
09:03PM -33.9862 150.5737 114° Southeast 179 206 4,100 -360 Descending Aus ATC (RADAR)
09:04PM -34.0045 150.6166 117° Southeast 169 194 3,900 -240 Descending Aus ATC (RADAR)
09:05PM -34.0278 150.6654 120° Southeast 167 192 3,700 -180 Descending Aus ATC (RADAR)
09:05PM -34.0437 150.7039 117° Southeast 167 192 3,600 -180 Descending Aus ATC (RADAR)